createdAt,value
2023-04-02T00:00:12.156Z,1.50
2023-04-02T00:03:10.282Z,1.80
2023-04-02T00:05:54.418Z,1.20
2023-04-02T00:08:38.910Z,1.60
2023-04-02T00:11:09.152Z,1.80
2023-04-02T00:13:45.517Z,1.10
2023-04-02T00:16:19.954Z,1.30
2023-04-02T00:18:54.183Z,1.40
2023-04-02T00:21:31.166Z,1.10
2023-04-02T00:24:10.974Z,1.40
2023-04-02T00:26:45.050Z,1.40
2023-04-02T00:29:16.244Z,1.40
2023-04-02T00:31:49.243Z,1.50
2023-04-02T00:34:26.469Z,1.50
2023-04-02T00:36:54.970Z,1.80
2023-04-02T00:39:27.402Z,1.40
2023-04-02T00:42:05.706Z,1.80
2023-04-02T00:44:44.794Z,1.70
2023-04-02T00:47:19.027Z,1.70
2023-04-02T00:49:54.680Z,1.50
2023-04-02T00:52:29.269Z,1.50
2023-04-02T00:55:07.899Z,1.60
2023-04-02T00:57:36.516Z,1.50
2023-04-02T01:00:34.125Z,1.90
2023-04-02T01:03:17.099Z,2.70
2023-04-02T01:05:55.840Z,2.30
2023-04-02T01:09:03.996Z,2.70
2023-04-02T01:11:56.093Z,2.10
2023-04-02T01:14:49.175Z,1.70
2023-04-02T01:18:09.730Z,1.50
2023-04-02T01:21:25.561Z,1.90
2023-04-02T01:24:02.245Z,2.00
2023-04-02T01:26:57.703Z,2.00
2023-04-02T01:29:32.569Z,2.30
2023-04-02T01:32:22.576Z,2.10
2023-04-02T01:34:52.429Z,2.00
2023-04-02T01:37:44.962Z,2.30
2023-04-02T01:40:28.230Z,2.40
2023-04-02T01:43:23.069Z,2.40
2023-04-02T01:45:51.032Z,3.00
2023-04-02T01:48:27.311Z,2.50
2023-04-02T01:50:59.393Z,2.50
2023-04-02T01:53:31.212Z,2.30
2023-04-02T01:56:02.741Z,2.70
2023-04-02T01:58:33.569Z,2.60
2023-04-02T02:01:09.437Z,3.00
2023-04-02T02:03:42.494Z,2.80
2023-04-02T02:06:18.150Z,3.10
2023-04-02T02:08:54.689Z,2.70
2023-04-02T02:11:27.592Z,3.00
2023-04-02T02:14:12.584Z,2.70
2023-04-02T02:16:44.282Z,2.70
2023-04-02T02:19:36.934Z,3.30
2023-04-02T02:22:29.186Z,3.40
2023-04-02T02:25:01.016Z,2.90
2023-04-02T02:28:18.335Z,2.70
2023-04-02T02:30:51.752Z,2.50
2023-04-02T02:33:46.326Z,2.40
2023-04-02T02:36:24.701Z,2.80
2023-04-02T02:39:05.824Z,2.80
2023-04-02T02:42:02.459Z,2.60
2023-04-02T02:44:37.368Z,3.10
2023-04-02T02:47:18.462Z,2.80
2023-04-02T02:49:53.193Z,3.20
2023-04-02T02:52:35.078Z,2.80
2023-04-02T02:55:15.883Z,2.60
2023-04-02T02:58:04.560Z,2.50
2023-04-02T03:00:38.378Z,2.90
2023-04-02T03:03:30.223Z,3.10
2023-04-02T03:06:09.144Z,2.30
2023-04-02T03:08:51.777Z,2.50
2023-04-02T03:11:33.814Z,2.50
2023-04-02T03:14:22.939Z,2.50
2023-04-02T03:17:19.558Z,2.40
2023-04-02T03:20:06.515Z,2.50
2023-04-02T03:23:04.970Z,2.70
2023-04-02T03:25:46.365Z,2.80
2023-04-02T03:28:24.749Z,2.50
2023-04-02T03:31:04.950Z,3.00
2023-04-02T03:33:47.808Z,2.80
2023-04-02T03:36:33.747Z,2.70
2023-04-02T03:39:24.118Z,2.70
2023-04-02T03:42:00.374Z,2.60
2023-04-02T03:44:37.304Z,2.80
2023-04-02T03:47:17.514Z,2.70
2023-04-02T03:49:57.240Z,2.70
2023-04-02T03:52:28.531Z,2.90
2023-04-02T03:55:01.256Z,3.10
2023-04-02T03:58:02.079Z,2.80
2023-04-02T04:01:28.439Z,2.80
2023-04-02T04:04:07.799Z,2.60
2023-04-02T04:06:41.423Z,2.60
2023-04-02T04:09:24.295Z,2.80
2023-04-02T04:12:02.061Z,2.60
2023-04-02T04:14:42.329Z,2.30
2023-04-02T04:19:55.463Z,2.50
2023-04-02T04:22:31.770Z,2.20
2023-04-02T04:25:19.350Z,2.70
2023-04-02T04:28:10.587Z,2.20
2023-04-02T04:31:18.020Z,2.20
2023-04-02T04:33:54.921Z,1.90
2023-04-02T04:36:32.144Z,3.00
2023-04-02T04:39:21.694Z,2.70
2023-04-02T04:41:54.293Z,2.30
2023-04-02T04:44:29.136Z,2.00
2023-04-02T04:47:09.262Z,2.60
2023-04-02T04:49:54.120Z,1.80
2023-04-02T04:52:35.484Z,2.10
2023-04-02T04:55:20.368Z,1.70
2023-04-02T04:57:50.803Z,1.90
2023-04-02T05:01:16.604Z,2.40
2023-04-02T05:03:58.445Z,2.30
2023-04-02T05:06:45.596Z,2.30
2023-04-02T05:09:51.988Z,2.40
2023-04-02T05:12:44.535Z,2.70
2023-04-02T05:15:42.263Z,2.00
2023-04-02T05:18:36.452Z,2.30
2023-04-02T05:21:14.544Z,2.40
2023-04-02T05:23:56.023Z,2.40
2023-04-02T05:29:18.228Z,2.20
2023-04-02T05:32:03.535Z,2.40
2023-04-02T05:34:41.817Z,2.10
2023-04-02T05:37:21.108Z,1.90
2023-04-02T05:40:00.928Z,2.00
2023-04-02T05:42:35.395Z,2.20
2023-04-02T05:45:14.593Z,1.50
2023-04-02T05:47:46.780Z,1.60
2023-04-02T05:50:26.061Z,1.50
2023-04-02T05:53:08.754Z,1.40
2023-04-02T05:55:51.909Z,2.00
2023-04-02T05:58:43.929Z,1.50
2023-04-02T06:01:37.652Z,1.70
2023-04-02T06:04:34.810Z,1.70
2023-04-02T06:07:23.778Z,1.90
2023-04-02T06:12:42.048Z,1.50
2023-04-02T06:15:16.966Z,1.50
2023-04-02T06:18:26.053Z,1.40
2023-04-02T06:20:55.837Z,1.60
2023-04-02T06:23:40.887Z,1.40
2023-04-02T06:26:33.240Z,1.30
2023-04-02T06:29:05.058Z,1.60
2023-04-02T06:31:38.878Z,1.90
2023-04-02T06:34:21.030Z,2.20
2023-04-02T06:37:18.240Z,1.60
2023-04-02T06:39:46.470Z,1.80
2023-04-02T06:42:26.546Z,1.40
2023-04-02T06:45:25.615Z,1.60
2023-04-02T06:48:19.823Z,2.10
2023-04-02T06:51:12.992Z,1.90
2023-04-02T06:53:46.758Z,1.60
2023-04-02T06:56:22.237Z,1.60
2023-04-02T06:58:50.659Z,1.70
2023-04-02T07:01:27.055Z,1.80
2023-04-02T07:03:57.066Z,1.90
2023-04-02T07:06:29.989Z,1.80
2023-04-02T07:09:00.761Z,1.80
2023-04-02T07:11:28.655Z,2.00
2023-04-02T07:13:59.537Z,1.90
2023-04-02T07:16:30.634Z,2.10
2023-04-02T07:18:59.421Z,1.60
2023-04-02T07:21:29.006Z,2.10
2023-04-02T07:23:57.803Z,1.90
2023-04-02T07:26:28.017Z,1.90
2023-04-02T07:28:56.166Z,1.80
2023-04-02T07:31:27.713Z,1.70
2023-04-02T07:36:29.667Z,1.80
2023-04-02T07:38:58.093Z,1.80
2023-04-02T07:41:26.374Z,2.00
2023-04-02T07:43:54.290Z,1.90
2023-04-02T07:46:22.202Z,2.60
2023-04-02T07:48:50.303Z,2.00
2023-04-02T07:51:26.612Z,1.70
2023-04-02T07:53:57.482Z,2.00
2023-04-02T07:56:26.113Z,1.70
2023-04-02T07:58:54.031Z,1.60
2023-04-02T08:01:27.587Z,1.50
2023-04-02T08:03:58.189Z,1.70
2023-04-02T08:06:26.266Z,2.10
2023-04-02T08:08:54.792Z,1.80
2023-04-02T08:11:23.015Z,1.90
2023-04-02T08:13:51.989Z,1.80
2023-04-02T08:16:19.979Z,1.80
2023-04-02T08:18:47.853Z,2.00
2023-04-02T08:21:16.627Z,1.70
2023-04-02T08:23:45.240Z,2.40
2023-04-02T08:26:18.913Z,2.40
2023-04-02T08:28:46.867Z,1.60
2023-04-02T08:31:14.678Z,2.20
2023-04-02T08:33:42.495Z,2.20
2023-04-02T08:36:17.724Z,2.00
2023-04-02T08:38:46.711Z,1.90
2023-04-02T08:41:27.614Z,1.90
2023-04-02T08:44:57.209Z,2.10
2023-04-02T08:47:27.263Z,2.10
2023-04-02T08:50:02.481Z,2.60
2023-04-02T08:52:38.207Z,2.40
2023-04-02T08:55:23.789Z,2.30
2023-04-02T08:58:06.497Z,2.50
2023-04-02T09:00:43.878Z,1.80
2023-04-02T09:03:30.486Z,2.30
2023-04-02T09:06:04.606Z,2.30
2023-04-02T09:08:35.488Z,2.10
2023-04-02T09:11:22.568Z,1.80
2023-04-02T09:14:01.808Z,1.70
2023-04-02T09:16:58.685Z,2.30
2023-04-02T09:19:55.460Z,1.70
2023-04-02T09:22:32.933Z,2.00
2023-04-02T09:25:12.293Z,2.60
2023-04-02T09:27:40.089Z,1.80
2023-04-02T09:30:32.392Z,1.80
2023-04-02T09:33:09.953Z,2.00
2023-04-02T09:35:50.508Z,1.80
2023-04-02T09:38:22.894Z,1.80
2023-04-02T09:41:00.769Z,2.20
2023-04-02T09:43:39.395Z,2.00
2023-04-02T09:46:13.184Z,1.70
2023-04-02T09:48:49.696Z,1.60
2023-04-02T09:51:21.497Z,1.70
2023-04-02T09:54:07.629Z,1.80
2023-04-02T09:56:38.423Z,2.20
2023-04-02T09:59:17.175Z,1.90
2023-04-02T10:01:55.688Z,1.70
2023-04-02T10:04:45.140Z,2.00
2023-04-02T10:07:32.588Z,1.90
2023-04-02T10:10:39.064Z,1.90
2023-04-02T10:13:18.827Z,1.80
2023-04-02T10:16:07.317Z,2.20
2023-04-02T10:18:58.354Z,1.70
2023-04-02T10:21:32.371Z,2.20
2023-04-02T10:24:00.375Z,2.20
2023-04-02T10:26:45.216Z,1.80
2023-04-02T10:29:21.553Z,1.80
2023-04-02T10:32:14.910Z,1.80
2023-04-02T10:35:08.878Z,1.70
2023-04-02T10:37:45.962Z,2.00
2023-04-02T10:40:49.568Z,2.00
2023-04-02T10:43:41.596Z,1.80
2023-04-02T10:46:37.855Z,1.50
2023-04-02T10:49:41.032Z,1.70
2023-04-02T10:52:36.218Z,2.30
2023-04-02T10:55:18.113Z,1.60
2023-04-02T10:57:47.140Z,1.80
2023-04-02T11:00:41.643Z,2.00
2023-04-02T11:03:43.439Z,1.90
2023-04-02T11:06:22.458Z,1.90
2023-04-02T11:08:57.621Z,1.80
2023-04-02T11:11:47.635Z,1.90
2023-04-02T11:14:31.469Z,2.00
2023-04-02T11:17:02.998Z,1.60
2023-04-02T11:22:24.497Z,1.90
2023-04-02T11:24:56.025Z,1.80
2023-04-02T11:30:06.401Z,1.70
2023-04-02T11:32:43.090Z,1.70
2023-04-02T11:35:39.199Z,2.00
2023-04-02T11:38:11.958Z,1.60
2023-04-02T11:41:06.086Z,1.90
2023-04-02T11:43:34.118Z,1.80
2023-04-02T11:46:34.849Z,1.60
2023-04-02T11:49:37.954Z,1.70
2023-04-02T11:52:22.137Z,1.70
2023-04-02T11:55:34.406Z,1.80
2023-04-02T11:58:35.998Z,1.80
2023-04-02T12:01:14.863Z,1.60
2023-04-02T12:04:11.836Z,1.80
2023-04-02T12:07:10.865Z,1.70
2023-04-02T12:09:46.789Z,1.60
2023-04-02T12:12:36.798Z,2.20
2023-04-02T12:15:48.562Z,1.70
2023-04-02T12:18:23.784Z,1.60
2023-04-02T12:20:56.560Z,1.80
2023-04-02T12:23:31.943Z,1.90
2023-04-02T12:26:24.084Z,2.00
2023-04-02T12:28:51.913Z,1.90
2023-04-02T12:31:25.304Z,3.30
2023-04-02T12:33:53.591Z,2.70
2023-04-02T12:36:23.711Z,2.70
2023-04-02T12:38:58.112Z,2.00
2023-04-02T12:41:33.405Z,1.80
2023-04-02T12:44:11.601Z,3.00
2023-04-02T12:46:40.672Z,1.70
2023-04-02T12:49:23.638Z,1.70
2023-04-02T12:51:52.845Z,1.80
2023-04-02T12:54:21.567Z,1.70
2023-04-02T12:56:50.838Z,2.10
2023-04-02T12:59:34.877Z,1.80
2023-04-02T13:02:18.639Z,2.10
2023-04-02T13:05:01.134Z,1.90
2023-04-02T13:07:33.735Z,1.90
2023-04-02T13:10:24.220Z,1.60
2023-04-02T13:13:02.556Z,1.80
2023-04-02T13:15:34.646Z,1.70
2023-04-02T13:18:13.575Z,1.70
2023-04-02T13:20:54.159Z,2.00
2023-04-02T13:23:34.326Z,1.90
2023-04-02T13:26:27.814Z,1.70
2023-04-02T13:29:17.716Z,2.00
2023-04-02T13:31:45.540Z,1.90
2023-04-02T13:34:13.389Z,2.90
2023-04-02T13:36:41.439Z,1.90
2023-04-02T13:39:10.007Z,1.70
2023-04-02T13:41:54.951Z,1.90
2023-04-02T13:44:29.946Z,1.80
2023-04-02T13:46:58.707Z,2.00
2023-04-02T13:49:27.987Z,2.10
2023-04-02T13:52:00.482Z,2.40
2023-04-02T13:54:55.728Z,2.40
2023-04-02T13:57:23.782Z,2.50
2023-04-02T13:59:51.615Z,2.00
2023-04-02T14:02:25.744Z,2.00
2023-04-02T14:05:28.642Z,1.70
2023-04-02T14:08:24.735Z,2.20
2023-04-02T14:11:25.270Z,2.70
2023-04-02T14:14:02.164Z,2.00
2023-04-02T14:16:56.910Z,1.80
2023-04-02T14:19:46.723Z,2.00
2023-04-02T14:22:46.331Z,2.10
2023-04-02T14:26:08.593Z,1.80
2023-04-02T14:29:11.007Z,2.00
2023-04-02T14:31:57.577Z,2.00
2023-04-02T14:34:53.785Z,2.10
2023-04-02T14:37:45.404Z,2.10
2023-04-02T14:43:03.337Z,1.70
2023-04-02T14:46:01.657Z,1.80
2023-04-02T14:49:27.290Z,1.70
2023-04-02T14:52:05.050Z,1.90
2023-04-02T14:54:51.766Z,2.20
2023-04-02T14:57:26.521Z,2.30
2023-04-02T15:00:11.805Z,1.90
2023-04-02T15:02:56.407Z,2.10
2023-04-02T15:05:48.938Z,1.80
2023-04-02T15:11:29.724Z,2.20
2023-04-02T15:14:17.864Z,2.10
2023-04-02T15:16:47.070Z,4.10
2023-04-02T15:19:20.576Z,2.50
2023-04-02T15:22:41.454Z,2.20
2023-04-02T15:25:49.156Z,1.70
2023-04-02T15:28:34.963Z,1.50
2023-04-02T15:31:15.415Z,2.10
2023-04-02T15:34:19.724Z,1.70
2023-04-02T15:37:13.659Z,2.00
2023-04-02T15:40:08.421Z,1.80
2023-04-02T15:42:50.411Z,1.90
2023-04-02T15:45:38.564Z,2.20
2023-04-02T15:48:45.139Z,1.90
2023-04-02T15:51:49.828Z,2.00
2023-04-02T15:55:04.375Z,1.50
2023-04-02T15:58:08.754Z,1.80
2023-04-02T16:01:13.507Z,1.60
2023-04-02T16:03:44.342Z,1.60
2023-04-02T16:06:31.240Z,1.50
2023-04-02T16:09:23.246Z,1.60
2023-04-02T16:12:09.717Z,1.90
2023-04-02T16:14:41.859Z,1.70
2023-04-02T16:17:25.610Z,1.70
2023-04-02T16:20:17.310Z,1.80
2023-04-02T16:23:00.584Z,1.70
2023-04-02T16:25:39.664Z,1.70
2023-04-02T16:29:01.062Z,1.80
2023-04-02T16:31:42.492Z,1.80
2023-04-02T16:34:55.078Z,1.70
2023-04-02T16:38:07.120Z,1.70
2023-04-02T16:41:04.770Z,2.20
2023-04-02T16:43:52.778Z,1.60
2023-04-02T16:46:39.057Z,1.40
2023-04-02T16:49:28.173Z,1.80
2023-04-02T16:52:08.858Z,1.40
2023-04-02T16:55:01.073Z,2.10
2023-04-02T16:58:07.799Z,1.70
2023-04-02T17:00:53.858Z,1.80
2023-04-02T17:03:56.090Z,1.70
2023-04-02T17:07:03.086Z,1.70
2023-04-02T17:09:53.721Z,2.00
2023-04-02T17:12:29.459Z,2.20
2023-04-02T17:15:11.646Z,1.60
2023-04-02T17:17:49.380Z,1.90
2023-04-02T17:20:23.774Z,1.80
2023-04-02T17:22:54.955Z,1.50
2023-04-02T17:25:34.065Z,1.80
2023-04-02T17:28:03.126Z,1.60
2023-04-02T17:30:53.574Z,1.70
2023-04-02T17:33:26.759Z,1.60
2023-04-02T17:36:08.621Z,1.50
2023-04-02T17:39:22.694Z,2.00
2023-04-02T17:42:26.473Z,1.70
2023-04-02T17:45:19.347Z,1.80
2023-04-02T17:48:10.880Z,1.90
2023-04-02T17:51:16.114Z,2.30
2023-04-02T17:54:11.368Z,1.90
2023-04-02T17:57:06.366Z,1.70
2023-04-02T18:00:02.636Z,1.50
2023-04-02T18:03:26.804Z,1.60
2023-04-02T18:06:06.792Z,1.70
2023-04-02T18:09:19.313Z,1.50
2023-04-02T18:12:06.981Z,1.90
2023-04-02T18:15:05.878Z,1.90
2023-04-02T18:18:11.430Z,1.50
2023-04-02T18:21:11.206Z,2.00
2023-04-02T18:24:09.778Z,1.80
2023-04-02T18:26:59.922Z,1.90
2023-04-02T18:30:01.812Z,2.10
2023-04-02T18:33:14.440Z,1.90
2023-04-02T18:36:17.126Z,1.60
2023-04-02T18:39:22.070Z,1.80
2023-04-02T18:41:59.289Z,1.50
2023-04-02T18:45:04.468Z,1.50
2023-04-02T18:48:00.305Z,3.30
2023-04-02T18:50:35.745Z,2.40
2023-04-02T18:53:18.636Z,2.70
2023-04-02T18:56:20.144Z,2.20
2023-04-02T18:58:53.002Z,2.30
2023-04-02T19:01:34.904Z,2.10
2023-04-02T19:04:09.685Z,2.60
2023-04-02T19:07:13.447Z,2.10
2023-04-02T19:09:47.856Z,1.90
2023-04-02T19:12:24.349Z,2.60
2023-04-02T19:14:52.782Z,2.30
2023-04-02T19:17:44.564Z,2.80
2023-04-02T19:23:43.122Z,2.30
2023-04-02T19:26:22.827Z,1.90
2023-04-02T19:29:31.087Z,2.10
2023-04-02T19:32:19.987Z,2.40
2023-04-02T19:35:06.304Z,2.50
2023-04-02T19:37:39.641Z,2.70
2023-04-02T19:40:42.507Z,3.00
2023-04-02T19:43:14.003Z,3.60
2023-04-02T19:45:48.378Z,3.40
2023-04-02T19:48:22.268Z,3.20
2023-04-02T19:50:51.967Z,2.80
2023-04-02T19:53:22.653Z,3.10
2023-04-02T19:55:52.737Z,2.90
2023-04-02T19:58:32.129Z,2.90
2023-04-02T20:01:03.279Z,3.40
2023-04-02T20:03:35.654Z,2.90
2023-04-02T20:06:05.785Z,3.10
2023-04-02T20:08:36.877Z,3.10
2023-04-02T20:11:08.034Z,2.70
2023-04-02T20:16:07.763Z,2.60
2023-04-02T20:18:37.529Z,3.00
2023-04-02T20:21:08.465Z,2.60
2023-04-02T20:23:37.360Z,2.60
2023-04-02T20:26:06.727Z,2.60
2023-04-02T20:28:36.114Z,2.80
2023-04-02T20:31:11.139Z,2.60
2023-04-02T20:33:41.974Z,2.60
2023-04-02T20:36:17.223Z,3.40
2023-04-02T20:38:45.942Z,3.20
2023-04-02T20:41:16.173Z,3.10
2023-04-02T20:43:44.915Z,2.60
2023-04-02T20:46:14.743Z,2.30
2023-04-02T20:48:44.071Z,2.60
2023-04-02T20:51:15.491Z,2.90
2023-04-02T20:53:43.709Z,3.00
2023-04-02T20:56:16.178Z,2.90
2023-04-02T20:58:44.362Z,2.70
2023-04-02T21:01:28.065Z,2.70
2023-04-02T21:04:00.560Z,2.50
2023-04-02T21:06:33.060Z,2.40
2023-04-02T21:09:07.719Z,2.70
2023-04-02T21:11:37.381Z,2.30
2023-04-02T21:14:05.537Z,2.50
2023-04-02T21:16:33.956Z,2.70
2023-04-02T21:19:07.399Z,2.70
2023-04-02T21:21:37.354Z,3.00
2023-04-02T21:24:08.558Z,2.60
2023-04-02T21:26:40.305Z,2.40
2023-04-02T21:29:08.302Z,2.60
2023-04-02T21:31:39.766Z,3.30
2023-04-02T21:34:13.649Z,3.00
2023-04-02T21:36:45.501Z,2.70
2023-04-02T21:39:22.824Z,3.50
2023-04-02T21:41:53.442Z,2.90
2023-04-02T21:44:23.763Z,2.60
2023-04-02T21:46:54.179Z,2.50
2023-04-02T21:49:23.561Z,2.10
2023-04-02T21:51:52.297Z,2.70
2023-04-02T21:54:20.288Z,2.50
2023-04-02T21:56:50.010Z,2.50
2023-04-02T21:59:18.974Z,2.70
2023-04-02T22:01:51.104Z,2.70
2023-04-02T22:04:25.386Z,3.20
2023-04-02T22:06:53.970Z,2.70
2023-04-02T22:09:25.226Z,2.50
2023-04-02T22:11:59.199Z,2.70
2023-04-02T22:14:28.546Z,2.70
2023-04-02T22:16:58.766Z,3.00
2023-04-02T22:19:27.429Z,2.50
2023-04-02T22:21:57.288Z,2.80
2023-04-02T22:24:25.627Z,2.90
2023-04-02T22:26:54.078Z,3.10
2023-04-02T22:29:22.421Z,3.00
2023-04-02T22:31:50.865Z,3.00
2023-04-02T22:34:19.013Z,3.30
2023-04-02T22:36:46.902Z,3.30
2023-04-02T22:39:16.322Z,2.70
2023-04-02T22:41:44.159Z,2.30
2023-04-02T22:44:15.519Z,2.90
2023-04-02T22:46:43.638Z,2.20
2023-04-02T22:49:19.504Z,2.50
2023-04-02T22:51:48.194Z,2.60
2023-04-02T22:54:16.331Z,2.40
2023-04-02T22:56:44.341Z,2.90
2023-04-02T22:59:12.427Z,2.30
2023-04-02T23:01:41.084Z,2.60
2023-04-02T23:04:09.557Z,2.00
2023-04-02T23:06:37.573Z,2.20
2023-04-02T23:09:05.561Z,2.50
2023-04-02T23:11:33.713Z,2.30
2023-04-02T23:14:01.785Z,2.50
2023-04-02T23:16:30.524Z,1.90
2023-04-02T23:18:58.860Z,2.10
2023-04-02T23:21:27.514Z,1.90
2023-04-02T23:23:56.272Z,1.80
2023-04-02T23:26:29.596Z,2.00
2023-04-02T23:28:59.844Z,1.90
2023-04-02T23:31:29.035Z,2.30
2023-04-02T23:33:57.023Z,2.70
2023-04-02T23:36:29.223Z,2.00
2023-04-02T23:39:04.552Z,2.30
2023-04-02T23:41:32.541Z,2.10
2023-04-02T23:44:01.060Z,1.90
2023-04-02T23:46:31.101Z,2.00
2023-04-02T23:49:00.720Z,1.70
2023-04-02T23:51:34.120Z,2.00
2023-04-02T23:54:02.076Z,2.00
2023-04-02T23:56:30.116Z,1.80
2023-04-02T23:58:58.024Z,1.80
